Portada
METAR-TAF:

METAR-TAF

Aeropuertos :

Goshen Municipal Airport

Goshen, Indiana, Estados Unidos

latitud: 41-31-34N, longitud: 085-47-12W, altitud: 252 m

Observación

El informe se hizo hace 31 minutos, a las 20:53 UTC
Viento 5 kt del sur-suroeste
Temperatura 31°C
Humedad 52%
Presión 1023 hPa
Visibilidad: 16.1 km
Escasas nubes a una altura de 6000 ft
Nubes dispersas a una altura de 7500 ft
Cielo nuboso a una altura de 9000 ft

METAR: KGSH 192053Z AUTO 20005KT 10SM FEW060 SCT075 BKN090 31/20 A3022 RMK AO2 SLP225 T03110200 56010

Hora: 17:24 (21:24 UTC)


TAF: falta

Observaciones y pronósticos meteorológicos de más de 4000 aeropuertos (mensajes METAR y TAF).

Los puntos amarillos y rojos representan las estaciones disponibles.

Ponga el ratón en el punto deseado para ver el nombre de la estación.

Haga clic para ver las observaciones y los pronósticos meteorológicos.

Para cambiar el mapa : haga clic en los botones verdes con una cruz de color negro para hacer un zoom, en el botón verde con un guión para alejar o en las flechas verdes para mapas adyacentes.


METAR-TAF: